Preview an experimental upcoming version of this site at Beta.AviationWeather.gov

Impacts TAF Board
For situational awareness. Not to be used for flight planning purposes.
IDs:

KTPA - Tampa Intl Arpt, FL, US

Issued at 1434 UTC 26 Sep 2023
Updated at 1455 UTC 26 Sep 2023
Potential Impact None Slight Moderate High
Time1353Z 26/15Z 26/16Z 26/17Z 26/18Z 26/19Z 26/20Z 26/21Z 26/22Z 26/23Z 27/00Z 27/01Z 27/02Z 27/03Z>>
Type OBS PRVL PRVL PRVL PRVL
  [TEMP]  
PRVL
  [TEMP]  
PRVL
  [TEMP]  
PRVL PRVL PRVL PRVL PRVL PRVL PRVL
VIS 10 >6 >6 >6 >6
  [3]  
>6
  [3]  
>6
  [3]  
>6 >6 >6 >6 >6 >6 >6
CIG -- 250 250 120 120
  [30]  
120
  [30]  
120
  [30]  
120 120 120 120 120 90 90
Cover SCT BKN BKN BKN BKN
  [BKN]  
BKN
  [BKN]  
BKN
  [BKN]  
BKN BKN BKN BKN BKN BKN BKN
FltCat VFR VFR VFR VFR VFR
  [MVFR]  
VFR
  [MVFR]  
VFR
  [MVFR]  
VFR VFR VFR VFR VFR VFR VFR
WX -- -- -- VCTS VCTS
  [TSRA]  
VCTS
  [TSRA]  
VCTS
  [TSRA]  
VCTS VCTS VCTS VCTS VCTS -- --
WDir 140 170 170 210 210
[VRB]
210
[VRB]
210
[VRB]
210 210 210 210 210 110 110
WSpd 8 8 8 6 6
  [15]  
6
  [15]  
6
  [15]  
6 6 6 6 6 4 4
WGst -- -- -- -- --
  [25]  
--
  [25]  
--
  [25]  
-- -- -- -- -- -- --
WSHgt -- -- -- -- --
[--]
--
[--]
--
[--]
-- -- -- -- -- -- --
WSDir -- -- -- -- --
[--]
--
[--]
--
[--]
-- -- -- -- -- -- --
WSSpd -- -- -- -- --
[--]
--
[--]
--
[--]
-- -- -- -- -- -- --

NOTE: LAMP data beyond the time of the TAF data is denoted as LAMP in Type and colored magenta.

Raw TAF
KTPA 261434Z 2615/2718 17008KT P6SM SCT025 SCT120 BKN250
  FM261700 21006KT P6SM VCTS SCT035CB BKN120
  TEMPO 2618/2621 VRB15G25KT 3SM TSRA BKN030CB
  FM270200 11004KT P6SM SCT025 BKN090
  FM271400 14005KT P6SM VCSH BKN030 BKN100


Raw METAR
KTPA 261353Z 14008KT 10SM FEW045 SCT120 29/24 A3006 RMK AO2 SLP179 T02890239
KTPA 261253Z 14005KT 10SM FEW006 FEW045 SCT120 27/24 A3005 RMK AO2 SLP174 T02720244
KTPA 261232Z VRB05KT 10SM FEW006 FEW045 SCT120 27/24 A3004 RMK AO2 T02720244
KTPA 261153Z VRB03KT 10SM FEW045 SCT120 26/24 A3002 RMK AO2 SLP166 70003 T02610244 10261 20256 53005

METAR Board
Radar Display
Forecast Discussion

For situational awareness. Not to be used for flight planning purposes.